sensor_id;sensor_type;location;lat;lon;timestamp;P1;durP1;ratioP1;P2;durP2;ratioP2
9759;SDS011;4919;48.792;9.202;2022-11-15T00:01:46;44.87;;;25.57;;
9759;SDS011;4919;48.792;9.202;2022-11-15T00:04:31;39.47;;;24.47;;
9759;SDS011;4919;48.792;9.202;2022-11-15T00:07:17;41.57;;;25.83;;
9759;SDS011;4919;48.792;9.202;2022-11-15T00:10:22;40.07;;;24.60;;
9759;SDS011;4919;48.792;9.202;2022-11-15T00:13:08;42.63;;;25.37;;
9759;SDS011;4919;48.792;9.202;2022-11-15T00:15:58;40.27;;;24.73;;
9759;SDS011;4919;48.792;9.202;2022-11-15T00:18:44;42.03;;;26.77;;
9759;SDS011;4919;48.792;9.202;2022-11-15T00:21:34;39.60;;;24.60;;
9759;SDS011;4919;48.792;9.202;2022-11-15T00:24:20;40.63;;;24.20;;
9759;SDS011;4919;48.792;9.202;2022-11-15T00:27:05;37.57;;;22.90;;
9759;SDS011;4919;48.792;9.202;2022-11-15T00:29:52;38.60;;;24.17;;
9759;SDS011;4919;48.792;9.202;2022-11-15T00:32:38;40.80;;;24.17;;
9759;SDS011;4919;48.792;9.202;2022-11-15T00:35:23;41.53;;;24.70;;
9759;SDS011;4919;48.792;9.202;2022-11-15T00:38:09;38.87;;;24.33;;
9759;SDS011;4919;48.792;9.202;2022-11-15T00:40:54;40.60;;;24.63;;
9759;SDS011;4919;48.792;9.202;2022-11-15T00:43:39;39.53;;;23.40;;
9759;SDS011;4919;48.792;9.202;2022-11-15T00:46:28;36.80;;;24.60;;
9759;SDS011;4919;48.792;9.202;2022-11-15T00:49:13;39.63;;;24.00;;
9759;SDS011;4919;48.792;9.202;2022-11-15T00:51:59;39.57;;;25.20;;
9759;SDS011;4919;48.792;9.202;2022-11-15T00:54:44;37.30;;;23.67;;
9759;SDS011;4919;48.792;9.202;2022-11-15T00:57:30;40.63;;;24.67;;
9759;SDS011;4919;48.792;9.202;2022-11-15T01:00:15;41.23;;;24.77;;
9759;SDS011;4919;48.792;9.202;2022-11-15T01:03:01;44.90;;;25.20;;
9759;SDS011;4919;48.792;9.202;2022-11-15T01:05:47;41.40;;;25.30;;
9759;SDS011;4919;48.792;9.202;2022-11-15T01:08:33;39.53;;;25.60;;
9759;SDS011;4919;48.792;9.202;2022-11-15T01:11:18;41.30;;;24.40;;
9759;SDS011;4919;48.792;9.202;2022-11-15T01:14:04;47.43;;;26.73;;
9759;SDS011;4919;48.792;9.202;2022-11-15T01:16:49;45.50;;;26.83;;
9759;SDS011;4919;48.792;9.202;2022-11-15T01:19:35;44.37;;;26.43;;
9759;SDS011;4919;48.792;9.202;2022-11-15T01:22:20;43.03;;;25.17;;
9759;SDS011;4919;48.792;9.202;2022-11-15T01:25:06;44.60;;;25.43;;
9759;SDS011;4919;48.792;9.202;2022-11-15T01:27:51;41.43;;;25.33;;
9759;SDS011;4919;48.792;9.202;2022-11-15T01:30:37;42.63;;;26.23;;
9759;SDS011;4919;48.792;9.202;2022-11-15T01:33:22;44.70;;;26.27;;
9759;SDS011;4919;48.792;9.202;2022-11-15T01:36:10;43.27;;;25.07;;
9759;SDS011;4919;48.792;9.202;2022-11-15T01:39:00;44.33;;;26.77;;
9759;SDS011;4919;48.792;9.202;2022-11-15T01:41:46;45.03;;;26.10;;
9759;SDS011;4919;48.792;9.202;2022-11-15T01:47:31;40.87;;;25.80;;
9759;SDS011;4919;48.792;9.202;2022-11-15T01:50:24;44.60;;;27.73;;
9759;SDS011;4919;48.792;9.202;2022-11-15T01:53:12;43.07;;;26.27;;
9759;SDS011;4919;48.792;9.202;2022-11-15T01:55:58;45.70;;;27.03;;
9759;SDS011;4919;48.792;9.202;2022-11-15T01:58:46;47.53;;;27.40;;
9759;SDS011;4919;48.792;9.202;2022-11-15T02:01:32;46.83;;;28.37;;
9759;SDS011;4919;48.792;9.202;2022-11-15T02:04:20;45.17;;;27.37;;
9759;SDS011;4919;48.792;9.202;2022-11-15T02:07:10;45.67;;;27.03;;
9759;SDS011;4919;48.792;9.202;2022-11-15T02:10:02;44.73;;;26.10;;
9759;SDS011;4919;48.792;9.202;2022-11-15T02:12:54;47.10;;;27.80;;
9759;SDS011;4919;48.792;9.202;2022-11-15T02:18:58;46.30;;;27.43;;
9759;SDS011;4919;48.792;9.202;2022-11-15T02:31:44;41.47;;;25.77;;
9759;SDS011;4919;48.792;9.202;2022-11-15T02:34:57;39.90;;;24.50;;
9759;SDS011;4919;48.792;9.202;2022-11-15T02:38:22;40.00;;;25.13;;
9759;SDS011;4919;48.792;9.202;2022-11-15T02:41:13;45.63;;;25.57;;
9759;SDS011;4919;48.792;9.202;2022-11-15T02:44:32;41.07;;;24.03;;
9759;SDS011;4919;48.792;9.202;2022-11-15T02:47:21;38.07;;;24.17;;
9759;SDS011;4919;48.792;9.202;2022-11-15T02:50:12;40.20;;;24.63;;
9759;SDS011;4919;48.792;9.202;2022-11-15T02:53:01;38.37;;;23.30;;
9759;SDS011;4919;48.792;9.202;2022-11-15T02:55:48;40.40;;;24.83;;
9759;SDS011;4919;48.792;9.202;2022-11-15T03:01:34;41.03;;;23.97;;
9759;SDS011;4919;48.792;9.202;2022-11-15T03:04:43;39.70;;;24.10;;
9759;SDS011;4919;48.792;9.202;2022-11-15T03:07:43;39.57;;;24.00;;
9759;SDS011;4919;48.792;9.202;2022-11-15T03:10:40;38.90;;;24.47;;
9759;SDS011;4919;48.792;9.202;2022-11-15T03:16:45;45.87;;;26.07;;
9759;SDS011;4919;48.792;9.202;2022-11-15T03:19:45;40.93;;;24.97;;
9759;SDS011;4919;48.792;9.202;2022-11-15T03:22:40;44.80;;;25.27;;
9759;SDS011;4919;48.792;9.202;2022-11-15T03:25:29;45.80;;;27.23;;
9759;SDS011;4919;48.792;9.202;2022-11-15T03:28:20;42.73;;;25.60;;
9759;SDS011;4919;48.792;9.202;2022-11-15T03:31:09;47.63;;;25.73;;
9759;SDS011;4919;48.792;9.202;2022-11-15T03:34:22;44.27;;;25.90;;
9759;SDS011;4919;48.792;9.202;2022-11-15T03:37:14;42.07;;;24.80;;
9759;SDS011;4919;48.792;9.202;2022-11-15T03:40:01;44.50;;;25.70;;
9759;SDS011;4919;48.792;9.202;2022-11-15T03:43:04;41.73;;;24.20;;
9759;SDS011;4919;48.792;9.202;2022-11-15T03:46:02;41.40;;;24.30;;
9759;SDS011;4919;48.792;9.202;2022-11-15T03:48:53;49.50;;;29.33;;
9759;SDS011;4919;48.792;9.202;2022-11-15T03:51:44;55.47;;;33.50;;
9759;SDS011;4919;48.792;9.202;2022-11-15T03:54:30;47.77;;;28.27;;
9759;SDS011;4919;48.792;9.202;2022-11-15T03:57:15;41.13;;;24.83;;
9759;SDS011;4919;48.792;9.202;2022-11-15T04:00:01;40.67;;;24.53;;
9759;SDS011;4919;48.792;9.202;2022-11-15T04:02:47;40.50;;;24.47;;
9759;SDS011;4919;48.792;9.202;2022-11-15T04:05:33;37.70;;;21.97;;
9759;SDS011;4919;48.792;9.202;2022-11-15T04:08:18;38.70;;;23.60;;
9759;SDS011;4919;48.792;9.202;2022-11-15T04:11:04;39.37;;;23.70;;
9759;SDS011;4919;48.792;9.202;2022-11-15T04:13:49;38.10;;;23.50;;
9759;SDS011;4919;48.792;9.202;2022-11-15T04:16:35;41.57;;;24.33;;
9759;SDS011;4919;48.792;9.202;2022-11-15T04:19:27;36.10;;;22.97;;
9759;SDS011;4919;48.792;9.202;2022-11-15T04:22:31;36.77;;;23.17;;
9759;SDS011;4919;48.792;9.202;2022-11-15T04:25:35;39.67;;;24.23;;
9759;SDS011;4919;48.792;9.202;2022-11-15T04:28:20;36.73;;;22.97;;
9759;SDS011;4919;48.792;9.202;2022-11-15T04:31:06;40.40;;;24.77;;
9759;SDS011;4919;48.792;9.202;2022-11-15T04:33:52;38.23;;;23.30;;
9759;SDS011;4919;48.792;9.202;2022-11-15T04:36:38;42.17;;;23.97;;
9759;SDS011;4919;48.792;9.202;2022-11-15T04:39:42;40.83;;;23.97;;
9759;SDS011;4919;48.792;9.202;2022-11-15T04:42:28;37.87;;;23.03;;
9759;SDS011;4919;48.792;9.202;2022-11-15T04:45:14;42.43;;;24.97;;
9759;SDS011;4919;48.792;9.202;2022-11-15T04:47:59;39.63;;;23.30;;
9759;SDS011;4919;48.792;9.202;2022-11-15T04:50:47;42.90;;;24.70;;
9759;SDS011;4919;48.792;9.202;2022-11-15T04:53:32;39.10;;;24.03;;
9759;SDS011;4919;48.792;9.202;2022-11-15T04:56:18;40.77;;;24.87;;
9759;SDS011;4919;48.792;9.202;2022-11-15T04:59:04;40.67;;;23.30;;
9759;SDS011;4919;48.792;9.202;2022-11-15T05:01:50;40.30;;;23.60;;
9759;SDS011;4919;48.792;9.202;2022-11-15T05:04:35;38.63;;;23.23;;
9759;SDS011;4919;48.792;9.202;2022-11-15T05:07:21;41.93;;;24.23;;
9759;SDS011;4919;48.792;9.202;2022-11-15T05:10:07;38.40;;;23.17;;
9759;SDS011;4919;48.792;9.202;2022-11-15T05:12:53;43.80;;;25.50;;
9759;SDS011;4919;48.792;9.202;2022-11-15T05:15:39;40.90;;;25.10;;
9759;SDS011;4919;48.792;9.202;2022-11-15T05:18:24;48.03;;;26.63;;
9759;SDS011;4919;48.792;9.202;2022-11-15T05:21:11;44.40;;;25.20;;
9759;SDS011;4919;48.792;9.202;2022-11-15T05:23:58;46.23;;;26.27;;
9759;SDS011;4919;48.792;9.202;2022-11-15T05:26:44;42.20;;;25.97;;
9759;SDS011;4919;48.792;9.202;2022-11-15T05:29:30;41.03;;;25.27;;
9759;SDS011;4919;48.792;9.202;2022-11-15T05:32:15;47.07;;;27.17;;
9759;SDS011;4919;48.792;9.202;2022-11-15T05:35:01;43.97;;;26.03;;
9759;SDS011;4919;48.792;9.202;2022-11-15T05:37:48;42.17;;;25.33;;
9759;SDS011;4919;48.792;9.202;2022-11-15T05:40:34;45.40;;;25.40;;
9759;SDS011;4919;48.792;9.202;2022-11-15T05:43:20;41.73;;;24.97;;
9759;SDS011;4919;48.792;9.202;2022-11-15T05:46:06;41.13;;;24.33;;
9759;SDS011;4919;48.792;9.202;2022-11-15T05:48:52;40.27;;;23.70;;
9759;SDS011;4919;48.792;9.202;2022-11-15T05:51:39;39.80;;;23.20;;
9759;SDS011;4919;48.792;9.202;2022-11-15T05:54:27;40.73;;;23.23;;
9759;SDS011;4919;48.792;9.202;2022-11-15T05:57:12;38.57;;;23.07;;
9759;SDS011;4919;48.792;9.202;2022-11-15T05:59:58;40.27;;;23.70;;
9759;SDS011;4919;48.792;9.202;2022-11-15T06:02:44;35.87;;;23.60;;
9759;SDS011;4919;48.792;9.202;2022-11-15T06:05:29;37.53;;;22.77;;
9759;SDS011;4919;48.792;9.202;2022-11-15T06:08:14;39.40;;;23.80;;
9759;SDS011;4919;48.792;9.202;2022-11-15T06:11:04;42.83;;;25.57;;
9759;SDS011;4919;48.792;9.202;2022-11-15T06:13:50;41.03;;;23.70;;
9759;SDS011;4919;48.792;9.202;2022-11-15T06:16:36;40.73;;;23.67;;
9759;SDS011;4919;48.792;9.202;2022-11-15T06:19:21;42.93;;;25.00;;
9759;SDS011;4919;48.792;9.202;2022-11-15T06:22:07;38.13;;;23.33;;
9759;SDS011;4919;48.792;9.202;2022-11-15T06:24:54;42.20;;;24.70;;
9759;SDS011;4919;48.792;9.202;2022-11-15T06:27:42;37.20;;;22.90;;
9759;SDS011;4919;48.792;9.202;2022-11-15T06:30:28;39.43;;;23.17;;
9759;SDS011;4919;48.792;9.202;2022-11-15T06:33:13;40.77;;;24.20;;
9759;SDS011;4919;48.792;9.202;2022-11-15T06:36:06;42.37;;;25.00;;
9759;SDS011;4919;48.792;9.202;2022-11-15T06:39:01;44.03;;;24.07;;
9759;SDS011;4919;48.792;9.202;2022-11-15T06:41:47;41.37;;;23.53;;
9759;SDS011;4919;48.792;9.202;2022-11-15T06:44:33;48.47;;;23.70;;
9759;SDS011;4919;48.792;9.202;2022-11-15T06:47:18;47.23;;;25.20;;
9759;SDS011;4919;48.792;9.202;2022-11-15T06:50:04;43.50;;;23.27;;
9759;SDS011;4919;48.792;9.202;2022-11-15T06:52:50;40.90;;;24.27;;
9759;SDS011;4919;48.792;9.202;2022-11-15T06:55:35;41.93;;;24.27;;
9759;SDS011;4919;48.792;9.202;2022-11-15T06:58:21;44.87;;;24.57;;
9759;SDS011;4919;48.792;9.202;2022-11-15T07:01:07;46.37;;;23.27;;
9759;SDS011;4919;48.792;9.202;2022-11-15T07:03:54;40.23;;;23.37;;
9759;SDS011;4919;48.792;9.202;2022-11-15T07:06:40;42.37;;;24.33;;
9759;SDS011;4919;48.792;9.202;2022-11-15T07:09:25;44.77;;;24.77;;
9759;SDS011;4919;48.792;9.202;2022-11-15T07:12:11;41.70;;;23.73;;
9759;SDS011;4919;48.792;9.202;2022-11-15T07:14:57;41.33;;;25.37;;
9759;SDS011;4919;48.792;9.202;2022-11-15T07:17:42;42.83;;;25.40;;
9759;SDS011;4919;48.792;9.202;2022-11-15T07:20:28;45.17;;;24.80;;
9759;SDS011;4919;48.792;9.202;2022-11-15T07:23:13;41.00;;;24.83;;
9759;SDS011;4919;48.792;9.202;2022-11-15T07:25:59;42.03;;;25.13;;
9759;SDS011;4919;48.792;9.202;2022-11-15T07:28:44;44.50;;;25.03;;
9759;SDS011;4919;48.792;9.202;2022-11-15T07:31:30;42.47;;;24.57;;
9759;SDS011;4919;48.792;9.202;2022-11-15T07:34:16;45.37;;;24.87;;
9759;SDS011;4919;48.792;9.202;2022-11-15T07:37:01;42.80;;;26.50;;
9759;SDS011;4919;48.792;9.202;2022-11-15T07:39:46;44.23;;;26.37;;
9759;SDS011;4919;48.792;9.202;2022-11-15T07:42:32;46.83;;;25.00;;
9759;SDS011;4919;48.792;9.202;2022-11-15T07:45:44;43.00;;;25.53;;
9759;SDS011;4919;48.792;9.202;2022-11-15T07:48:30;43.63;;;25.77;;
9759;SDS011;4919;48.792;9.202;2022-11-15T07:51:26;42.63;;;25.70;;
9759;SDS011;4919;48.792;9.202;2022-11-15T07:54:12;44.97;;;26.23;;
9759;SDS011;4919;48.792;9.202;2022-11-15T07:56:57;46.63;;;26.37;;
9759;SDS011;4919;48.792;9.202;2022-11-15T07:59:50;44.17;;;26.77;;
9759;SDS011;4919;48.792;9.202;2022-11-15T08:02:36;42.50;;;26.00;;
9759;SDS011;4919;48.792;9.202;2022-11-15T08:05:21;45.83;;;27.20;;
9759;SDS011;4919;48.792;9.202;2022-11-15T08:08:07;45.10;;;25.97;;
9759;SDS011;4919;48.792;9.202;2022-11-15T08:10:54;43.23;;;25.60;;
9759;SDS011;4919;48.792;9.202;2022-11-15T08:13:41;45.93;;;28.00;;
9759;SDS011;4919;48.792;9.202;2022-11-15T08:16:27;46.03;;;27.87;;
9759;SDS011;4919;48.792;9.202;2022-11-15T08:19:12;45.80;;;28.63;;
9759;SDS011;4919;48.792;9.202;2022-11-15T08:21:58;45.03;;;27.50;;
9759;SDS011;4919;48.792;9.202;2022-11-15T08:24:43;46.37;;;27.67;;
9759;SDS011;4919;48.792;9.202;2022-11-15T08:27:29;47.37;;;28.23;;
9759;SDS011;4919;48.792;9.202;2022-11-15T08:30:14;44.33;;;27.87;;
9759;SDS011;4919;48.792;9.202;2022-11-15T08:33:00;45.87;;;27.50;;
9759;SDS011;4919;48.792;9.202;2022-11-15T08:35:46;46.13;;;27.87;;
9759;SDS011;4919;48.792;9.202;2022-11-15T08:38:31;44.47;;;27.80;;
9759;SDS011;4919;48.792;9.202;2022-11-15T08:44:32;43.87;;;27.37;;
9759;SDS011;4919;48.792;9.202;2022-11-15T08:47:17;44.17;;;27.73;;
9759;SDS011;4919;48.792;9.202;2022-11-15T08:50:03;41.73;;;26.67;;
9759;SDS011;4919;48.792;9.202;2022-11-15T08:52:49;38.23;;;25.53;;
9759;SDS011;4919;48.792;9.202;2022-11-15T08:55:37;41.00;;;26.00;;
9759;SDS011;4919;48.792;9.202;2022-11-15T08:58:24;38.57;;;25.37;;
9759;SDS011;4919;48.792;9.202;2022-11-15T09:01:16;38.30;;;25.93;;
9759;SDS011;4919;48.792;9.202;2022-11-15T09:04:03;32.87;;;23.23;;
9759;SDS011;4919;48.792;9.202;2022-11-15T09:06:49;35.33;;;22.97;;
9759;SDS011;4919;48.792;9.202;2022-11-15T09:09:34;33.73;;;22.73;;
9759;SDS011;4919;48.792;9.202;2022-11-15T09:12:21;30.93;;;22.17;;
9759;SDS011;4919;48.792;9.202;2022-11-15T09:15:06;31.77;;;21.33;;
9759;SDS011;4919;48.792;9.202;2022-11-15T09:17:52;31.70;;;20.40;;
9759;SDS011;4919;48.792;9.202;2022-11-15T09:20:37;33.60;;;21.83;;
9759;SDS011;4919;48.792;9.202;2022-11-15T09:23:23;32.13;;;21.70;;
9759;SDS011;4919;48.792;9.202;2022-11-15T09:26:10;28.90;;;21.13;;
9759;SDS011;4919;48.792;9.202;2022-11-15T09:28:55;30.53;;;20.83;;
9759;SDS011;4919;48.792;9.202;2022-11-15T09:31:40;28.13;;;20.07;;
9759;SDS011;4919;48.792;9.202;2022-11-15T09:34:26;25.97;;;19.03;;
9759;SDS011;4919;48.792;9.202;2022-11-15T09:37:11;25.17;;;18.23;;
9759;SDS011;4919;48.792;9.202;2022-11-15T09:39:57;25.63;;;18.80;;
9759;SDS011;4919;48.792;9.202;2022-11-15T09:49:01;22.80;;;16.63;;
9759;SDS011;4919;48.792;9.202;2022-11-15T09:51:48;20.97;;;16.43;;
9759;SDS011;4919;48.792;9.202;2022-11-15T09:57:16;23.87;;;17.43;;
9759;SDS011;4919;48.792;9.202;2022-11-15T10:03:02;21.83;;;16.43;;
9759;SDS011;4919;48.792;9.202;2022-11-15T10:05:54;24.13;;;16.37;;
9759;SDS011;4919;48.792;9.202;2022-11-15T10:08:30;21.47;;;17.10;;
9759;SDS011;4919;48.792;9.202;2022-11-15T10:11:06;20.60;;;15.87;;
9759;SDS011;4919;48.792;9.202;2022-11-15T10:14:08;20.70;;;15.73;;
9759;SDS011;4919;48.792;9.202;2022-11-15T10:22:38;19.37;;;15.20;;
9759;SDS011;4919;48.792;9.202;2022-11-15T10:25:23;20.50;;;13.53;;
9759;SDS011;4919;48.792;9.202;2022-11-15T10:27:58;18.93;;;13.30;;
9759;SDS011;4919;48.792;9.202;2022-11-15T10:30:32;18.53;;;14.20;;
9759;SDS011;4919;48.792;9.202;2022-11-15T10:35:46;20.87;;;13.17;;
9759;SDS011;4919;48.792;9.202;2022-11-15T10:38:13;18.17;;;13.60;;
9759;SDS011;4919;48.792;9.202;2022-11-15T10:40:40;18.63;;;13.23;;
9759;SDS011;4919;48.792;9.202;2022-11-15T10:43:13;15.87;;;13.17;;
9759;SDS011;4919;48.792;9.202;2022-11-15T10:45:42;18.13;;;12.90;;
9759;SDS011;4919;48.792;9.202;2022-11-15T10:50:43;16.37;;;12.83;;
9759;SDS011;4919;48.792;9.202;2022-11-15T10:53:26;17.50;;;12.53;;
9759;SDS011;4919;48.792;9.202;2022-11-15T10:55:55;15.90;;;12.50;;
9759;SDS011;4919;48.792;9.202;2022-11-15T10:58:33;16.00;;;12.00;;
9759;SDS011;4919;48.792;9.202;2022-11-15T11:01:24;17.30;;;11.97;;
9759;SDS011;4919;48.792;9.202;2022-11-15T11:06:27;16.63;;;12.57;;
9759;SDS011;4919;48.792;9.202;2022-11-15T11:08:55;15.40;;;12.77;;
9759;SDS011;4919;48.792;9.202;2022-11-15T11:17:01;16.20;;;12.17;;
9759;SDS011;4919;48.792;9.202;2022-11-15T11:28:44;16.07;;;11.57;;
9759;SDS011;4919;48.792;9.202;2022-11-15T11:31:29;13.60;;;11.20;;
9759;SDS011;4919;48.792;9.202;2022-11-15T11:36:54;12.23;;;10.30;;
9759;SDS011;4919;48.792;9.202;2022-11-15T11:45:15;13.20;;;9.33;;
9759;SDS011;4919;48.792;9.202;2022-11-15T11:47:51;11.53;;;8.97;;
9759;SDS011;4919;48.792;9.202;2022-11-15T11:50:28;11.43;;;9.27;;
9759;SDS011;4919;48.792;9.202;2022-11-15T11:53:12;9.83;;;8.30;;
9759;SDS011;4919;48.792;9.202;2022-11-15T11:58:35;12.10;;;8.80;;
9759;SDS011;4919;48.792;9.202;2022-11-15T12:01:20;10.13;;;7.83;;
9759;SDS011;4919;48.792;9.202;2022-11-15T12:09:06;10.80;;;8.63;;
9759;SDS011;4919;48.792;9.202;2022-11-15T12:12:00;10.47;;;8.50;;
9759;SDS011;4919;48.792;9.202;2022-11-15T12:17:17;12.03;;;9.23;;
9759;SDS011;4919;48.792;9.202;2022-11-15T12:19:48;11.00;;;8.70;;
9759;SDS011;4919;48.792;9.202;2022-11-15T12:22:39;11.00;;;8.63;;
9759;SDS011;4919;48.792;9.202;2022-11-15T12:25:29;10.07;;;8.20;;
9759;SDS011;4919;48.792;9.202;2022-11-15T12:30:42;11.97;;;8.10;;
9759;SDS011;4919;48.792;9.202;2022-11-15T12:36:11;9.17;;;7.97;;
9759;SDS011;4919;48.792;9.202;2022-11-15T12:41:35;10.40;;;8.30;;
9759;SDS011;4919;48.792;9.202;2022-11-15T12:44:04;11.50;;;8.30;;
9759;SDS011;4919;48.792;9.202;2022-11-15T13:17:54;16.83;;;11.00;;
9759;SDS011;4919;48.792;9.202;2022-11-15T13:20:23;14.50;;;11.50;;
9759;SDS011;4919;48.792;9.202;2022-11-15T13:28:03;16.83;;;12.37;;
9759;SDS011;4919;48.792;9.202;2022-11-15T13:33:23;15.27;;;11.20;;
9759;SDS011;4919;48.792;9.202;2022-11-15T13:36:02;17.13;;;12.50;;
9759;SDS011;4919;48.792;9.202;2022-11-15T13:38:35;14.47;;;11.73;;
9759;SDS011;4919;48.792;9.202;2022-11-15T13:43:45;16.27;;;12.63;;
9759;SDS011;4919;48.792;9.202;2022-11-15T13:46:15;17.67;;;13.03;;
9759;SDS011;4919;48.792;9.202;2022-11-15T13:48:54;21.13;;;12.17;;
9759;SDS011;4919;48.792;9.202;2022-11-15T13:51:28;16.17;;;12.10;;
9759;SDS011;4919;48.792;9.202;2022-11-15T13:54:13;19.43;;;12.23;;
9759;SDS011;4919;48.792;9.202;2022-11-15T13:56:50;13.93;;;11.83;;
9759;SDS011;4919;48.792;9.202;2022-11-15T13:59:33;16.20;;;12.70;;
9759;SDS011;4919;48.792;9.202;2022-11-15T14:02:03;15.50;;;12.17;;
9759;SDS011;4919;48.792;9.202;2022-11-15T14:04:48;19.47;;;12.73;;
9759;SDS011;4919;48.792;9.202;2022-11-15T14:07:21;16.93;;;12.33;;
9759;SDS011;4919;48.792;9.202;2022-11-15T14:09:50;16.57;;;12.47;;
9759;SDS011;4919;48.792;9.202;2022-11-15T14:12:25;15.87;;;12.07;;
9759;SDS011;4919;48.792;9.202;2022-11-15T14:14:52;14.20;;;11.60;;
9759;SDS011;4919;48.792;9.202;2022-11-15T14:17:21;16.03;;;12.27;;
9759;SDS011;4919;48.792;9.202;2022-11-15T14:19:49;14.70;;;11.30;;
9759;SDS011;4919;48.792;9.202;2022-11-15T14:22:24;15.90;;;11.20;;
9759;SDS011;4919;48.792;9.202;2022-11-15T14:27:31;16.30;;;11.63;;
9759;SDS011;4919;48.792;9.202;2022-11-15T14:29:59;17.00;;;11.37;;
9759;SDS011;4919;48.792;9.202;2022-11-15T14:32:27;17.30;;;11.17;;
9759;SDS011;4919;48.792;9.202;2022-11-15T14:34:56;15.30;;;10.87;;
9759;SDS011;4919;48.792;9.202;2022-11-15T14:37:26;16.70;;;11.10;;
9759;SDS011;4919;48.792;9.202;2022-11-15T14:39:54;17.13;;;11.57;;
9759;SDS011;4919;48.792;9.202;2022-11-15T14:42:21;15.87;;;11.27;;
9759;SDS011;4919;48.792;9.202;2022-11-15T14:44:49;12.87;;;10.77;;
9759;SDS011;4919;48.792;9.202;2022-11-15T14:47:17;15.03;;;10.70;;
9759;SDS011;4919;48.792;9.202;2022-11-15T14:49:44;14.63;;;11.20;;
9759;SDS011;4919;48.792;9.202;2022-11-15T14:52:27;15.27;;;11.13;;
9759;SDS011;4919;48.792;9.202;2022-11-15T14:54:58;15.50;;;11.27;;
9759;SDS011;4919;48.792;9.202;2022-11-15T14:57:28;14.83;;;10.57;;
9759;SDS011;4919;48.792;9.202;2022-11-15T14:59:55;14.37;;;9.87;;
9759;SDS011;4919;48.792;9.202;2022-11-15T15:02:23;16.67;;;10.03;;
9759;SDS011;4919;48.792;9.202;2022-11-15T15:04:52;13.23;;;10.07;;
9759;SDS011;4919;48.792;9.202;2022-11-15T15:07:19;13.70;;;10.13;;
9759;SDS011;4919;48.792;9.202;2022-11-15T15:09:47;15.17;;;11.00;;
9759;SDS011;4919;48.792;9.202;2022-11-15T15:12:18;13.07;;;10.13;;
9759;SDS011;4919;48.792;9.202;2022-11-15T15:14:47;13.37;;;10.50;;
9759;SDS011;4919;48.792;9.202;2022-11-15T15:17:15;13.90;;;10.30;;
9759;SDS011;4919;48.792;9.202;2022-11-15T15:19:43;13.80;;;10.33;;
9759;SDS011;4919;48.792;9.202;2022-11-15T15:22:14;12.67;;;9.77;;
9759;SDS011;4919;48.792;9.202;2022-11-15T15:24:43;12.93;;;9.67;;
9759;SDS011;4919;48.792;9.202;2022-11-15T15:27:10;17.53;;;10.53;;
9759;SDS011;4919;48.792;9.202;2022-11-15T15:29:38;15.83;;;10.00;;
9759;SDS011;4919;48.792;9.202;2022-11-15T15:32:06;13.00;;;10.27;;
9759;SDS011;4919;48.792;9.202;2022-11-15T15:34:32;13.73;;;10.43;;
9759;SDS011;4919;48.792;9.202;2022-11-15T15:37:07;14.67;;;9.87;;
9759;SDS011;4919;48.792;9.202;2022-11-15T15:39:51;14.77;;;10.17;;
9759;SDS011;4919;48.792;9.202;2022-11-15T15:42:18;15.57;;;10.87;;
9759;SDS011;4919;48.792;9.202;2022-11-15T15:44:46;15.40;;;10.23;;
9759;SDS011;4919;48.792;9.202;2022-11-15T15:47:15;15.83;;;10.20;;
9759;SDS011;4919;48.792;9.202;2022-11-15T15:49:51;14.07;;;10.30;;
9759;SDS011;4919;48.792;9.202;2022-11-15T15:52:18;13.37;;;10.13;;
9759;SDS011;4919;48.792;9.202;2022-11-15T15:54:45;13.50;;;10.60;;
9759;SDS011;4919;48.792;9.202;2022-11-15T15:57:13;13.77;;;10.23;;
9759;SDS011;4919;48.792;9.202;2022-11-15T15:59:40;15.73;;;10.07;;
9759;SDS011;4919;48.792;9.202;2022-11-15T16:02:13;15.83;;;11.00;;
9759;SDS011;4919;48.792;9.202;2022-11-15T16:04:40;14.93;;;10.90;;
9759;SDS011;4919;48.792;9.202;2022-11-15T16:07:12;14.03;;;10.60;;
9759;SDS011;4919;48.792;9.202;2022-11-15T16:09:45;15.20;;;11.00;;
9759;SDS011;4919;48.792;9.202;2022-11-15T16:12:31;15.60;;;10.70;;
9759;SDS011;4919;48.792;9.202;2022-11-15T16:15:02;16.43;;;10.90;;
9759;SDS011;4919;48.792;9.202;2022-11-15T16:17:33;14.70;;;11.23;;
9759;SDS011;4919;48.792;9.202;2022-11-15T16:20:03;15.30;;;11.00;;
9759;SDS011;4919;48.792;9.202;2022-11-15T16:22:30;15.73;;;10.73;;
9759;SDS011;4919;48.792;9.202;2022-11-15T16:24:57;16.40;;;11.43;;
9759;SDS011;4919;48.792;9.202;2022-11-15T16:27:24;17.67;;;11.63;;
9759;SDS011;4919;48.792;9.202;2022-11-15T16:29:51;16.40;;;11.90;;
9759;SDS011;4919;48.792;9.202;2022-11-15T16:32:18;16.20;;;11.20;;
9759;SDS011;4919;48.792;9.202;2022-11-15T16:34:45;13.17;;;10.10;;
9759;SDS011;4919;48.792;9.202;2022-11-15T16:37:23;15.10;;;10.90;;
9759;SDS011;4919;48.792;9.202;2022-11-15T16:39:50;14.47;;;11.20;;
9759;SDS011;4919;48.792;9.202;2022-11-15T16:42:22;16.70;;;11.27;;
9759;SDS011;4919;48.792;9.202;2022-11-15T16:44:49;16.53;;;11.60;;
9759;SDS011;4919;48.792;9.202;2022-11-15T16:47:19;21.33;;;12.37;;
9759;SDS011;4919;48.792;9.202;2022-11-15T16:49:46;19.20;;;12.73;;
9759;SDS011;4919;48.792;9.202;2022-11-15T16:52:13;19.63;;;12.03;;
9759;SDS011;4919;48.792;9.202;2022-11-15T16:54:46;15.90;;;11.13;;
9759;SDS011;4919;48.792;9.202;2022-11-15T16:57:13;16.50;;;12.27;;
9759;SDS011;4919;48.792;9.202;2022-11-15T16:59:41;20.57;;;12.67;;
9759;SDS011;4919;48.792;9.202;2022-11-15T17:02:11;18.10;;;12.07;;
9759;SDS011;4919;48.792;9.202;2022-11-15T17:04:38;17.27;;;12.00;;
9759;SDS011;4919;48.792;9.202;2022-11-15T17:07:05;14.23;;;11.87;;
9759;SDS011;4919;48.792;9.202;2022-11-15T17:09:33;17.93;;;11.93;;
9759;SDS011;4919;48.792;9.202;2022-11-15T17:12:00;17.03;;;12.17;;
9759;SDS011;4919;48.792;9.202;2022-11-15T17:14:27;16.77;;;11.63;;
9759;SDS011;4919;48.792;9.202;2022-11-15T17:16:54;17.43;;;11.27;;
9759;SDS011;4919;48.792;9.202;2022-11-15T17:19:21;17.33;;;11.13;;
9759;SDS011;4919;48.792;9.202;2022-11-15T17:21:48;17.10;;;11.53;;
9759;SDS011;4919;48.792;9.202;2022-11-15T17:24:15;18.40;;;13.27;;
9759;SDS011;4919;48.792;9.202;2022-11-15T17:26:42;20.30;;;14.10;;
9759;SDS011;4919;48.792;9.202;2022-11-15T17:29:09;19.47;;;14.17;;
9759;SDS011;4919;48.792;9.202;2022-11-15T17:31:38;21.53;;;14.27;;
9759;SDS011;4919;48.792;9.202;2022-11-15T17:34:05;21.37;;;15.43;;
9759;SDS011;4919;48.792;9.202;2022-11-15T17:36:32;23.73;;;16.60;;
9759;SDS011;4919;48.792;9.202;2022-11-15T17:39:00;22.10;;;17.37;;
9759;SDS011;4919;48.792;9.202;2022-11-15T17:41:28;21.07;;;16.67;;
9759;SDS011;4919;48.792;9.202;2022-11-15T17:43:56;22.30;;;16.33;;
9759;SDS011;4919;48.792;9.202;2022-11-15T17:46:25;23.67;;;16.90;;
9759;SDS011;4919;48.792;9.202;2022-11-15T17:48:53;23.67;;;16.93;;
9759;SDS011;4919;48.792;9.202;2022-11-15T17:51:21;25.27;;;17.63;;
9759;SDS011;4919;48.792;9.202;2022-11-15T17:53:49;27.53;;;18.80;;
9759;SDS011;4919;48.792;9.202;2022-11-15T17:56:18;28.93;;;19.70;;
9759;SDS011;4919;48.792;9.202;2022-11-15T17:58:50;28.80;;;19.23;;
9759;SDS011;4919;48.792;9.202;2022-11-15T18:01:34;26.93;;;19.27;;
9759;SDS011;4919;48.792;9.202;2022-11-15T18:04:03;26.73;;;19.63;;
9759;SDS011;4919;48.792;9.202;2022-11-15T18:06:33;29.70;;;20.13;;
9759;SDS011;4919;48.792;9.202;2022-11-15T18:09:02;32.87;;;20.97;;
9759;SDS011;4919;48.792;9.202;2022-11-15T18:11:39;31.17;;;20.80;;
9759;SDS011;4919;48.792;9.202;2022-11-15T18:14:12;30.70;;;20.93;;
9759;SDS011;4919;48.792;9.202;2022-11-15T18:16:40;32.57;;;21.33;;
9759;SDS011;4919;48.792;9.202;2022-11-15T18:19:07;31.80;;;22.43;;
9759;SDS011;4919;48.792;9.202;2022-11-15T18:21:42;36.00;;;21.87;;
9759;SDS011;4919;48.792;9.202;2022-11-15T18:24:27;35.03;;;22.53;;
9759;SDS011;4919;48.792;9.202;2022-11-15T18:26:56;34.43;;;22.50;;
9759;SDS011;4919;48.792;9.202;2022-11-15T18:29:23;32.93;;;22.47;;